sensor_id;sensor_type;location;lat;lon;timestamp;P1;durP1;ratioP1;P2;durP2;ratioP2
11084;SDS011;5596;46.826;8.650;2023-03-05T00:02:07;33.57;;;19.50;;
11084;SDS011;5596;46.826;8.650;2023-03-05T00:04:34;32.97;;;18.90;;
11084;SDS011;5596;46.826;8.650;2023-03-05T00:07:01;36.30;;;20.27;;
11084;SDS011;5596;46.826;8.650;2023-03-05T00:09:29;36.67;;;20.73;;
11084;SDS011;5596;46.826;8.650;2023-03-05T00:11:56;34.47;;;19.40;;
11084;SDS011;5596;46.826;8.650;2023-03-05T00:14:23;37.13;;;20.57;;
11084;SDS011;5596;46.826;8.650;2023-03-05T00:16:50;38.67;;;20.17;;
11084;SDS011;5596;46.826;8.650;2023-03-05T00:19:18;40.37;;;21.20;;
11084;SDS011;5596;46.826;8.650;2023-03-05T00:21:45;36.03;;;19.73;;
11084;SDS011;5596;46.826;8.650;2023-03-05T00:24:13;40.10;;;21.23;;
11084;SDS011;5596;46.826;8.650;2023-03-05T00:26:43;35.97;;;20.33;;
11084;SDS011;5596;46.826;8.650;2023-03-05T00:29:11;38.47;;;20.00;;
11084;SDS011;5596;46.826;8.650;2023-03-05T00:31:43;33.87;;;19.07;;
11084;SDS011;5596;46.826;8.650;2023-03-05T00:34:12;34.13;;;18.43;;
11084;SDS011;5596;46.826;8.650;2023-03-05T00:36:43;39.50;;;19.63;;
11084;SDS011;5596;46.826;8.650;2023-03-05T00:39:12;39.67;;;19.30;;
11084;SDS011;5596;46.826;8.650;2023-03-05T00:41:39;37.50;;;19.33;;
11084;SDS011;5596;46.826;8.650;2023-03-05T00:44:06;34.17;;;18.43;;
11084;SDS011;5596;46.826;8.650;2023-03-05T00:46:33;37.20;;;19.33;;
11084;SDS011;5596;46.826;8.650;2023-03-05T00:49:01;33.33;;;18.50;;
11084;SDS011;5596;46.826;8.650;2023-03-05T00:51:28;33.83;;;17.13;;
11084;SDS011;5596;46.826;8.650;2023-03-05T00:53:57;37.70;;;19.00;;
11084;SDS011;5596;46.826;8.650;2023-03-05T00:56:24;33.87;;;18.77;;
11084;SDS011;5596;46.826;8.650;2023-03-05T00:58:53;34.97;;;18.57;;
11084;SDS011;5596;46.826;8.650;2023-03-05T01:01:20;34.83;;;17.77;;
11084;SDS011;5596;46.826;8.650;2023-03-05T01:03:47;32.33;;;18.70;;
11084;SDS011;5596;46.826;8.650;2023-03-05T01:06:15;32.03;;;17.93;;
11084;SDS011;5596;46.826;8.650;2023-03-05T01:08:42;33.50;;;18.67;;
11084;SDS011;5596;46.826;8.650;2023-03-05T01:11:11;37.50;;;19.27;;
11084;SDS011;5596;46.826;8.650;2023-03-05T01:13:38;32.83;;;18.03;;
11084;SDS011;5596;46.826;8.650;2023-03-05T01:16:06;32.17;;;18.00;;
11084;SDS011;5596;46.826;8.650;2023-03-05T01:18:33;35.37;;;17.93;;
11084;SDS011;5596;46.826;8.650;2023-03-05T01:21:00;44.83;;;19.27;;
11084;SDS011;5596;46.826;8.650;2023-03-05T01:23:29;36.13;;;18.60;;
11084;SDS011;5596;46.826;8.650;2023-03-05T01:25:57;35.13;;;18.10;;
11084;SDS011;5596;46.826;8.650;2023-03-05T01:28:27;35.87;;;19.57;;
11084;SDS011;5596;46.826;8.650;2023-03-05T01:30:54;37.10;;;19.53;;
11084;SDS011;5596;46.826;8.650;2023-03-05T01:33:22;30.20;;;17.67;;
11084;SDS011;5596;46.826;8.650;2023-03-05T01:35:49;35.63;;;18.37;;
11084;SDS011;5596;46.826;8.650;2023-03-05T01:38:16;32.50;;;17.27;;
11084;SDS011;5596;46.826;8.650;2023-03-05T01:40:43;33.67;;;17.80;;
11084;SDS011;5596;46.826;8.650;2023-03-05T01:43:21;31.87;;;18.47;;
11084;SDS011;5596;46.826;8.650;2023-03-05T01:49:03;44.57;;;23.07;;
11084;SDS011;5596;46.826;8.650;2023-03-05T01:51:43;42.37;;;21.80;;
11084;SDS011;5596;46.826;8.650;2023-03-05T01:54:16;39.73;;;22.07;;
11084;SDS011;5596;46.826;8.650;2023-03-05T01:56:46;43.37;;;22.57;;
11084;SDS011;5596;46.826;8.650;2023-03-05T01:59:15;43.10;;;23.30;;
11084;SDS011;5596;46.826;8.650;2023-03-05T02:01:45;38.57;;;21.03;;
11084;SDS011;5596;46.826;8.650;2023-03-05T02:04:16;44.13;;;22.33;;
11084;SDS011;5596;46.826;8.650;2023-03-05T02:06:45;41.53;;;20.90;;
11084;SDS011;5596;46.826;8.650;2023-03-05T02:09:14;40.07;;;23.03;;
11084;SDS011;5596;46.826;8.650;2023-03-05T02:11:41;46.57;;;22.77;;
11084;SDS011;5596;46.826;8.650;2023-03-05T02:14:10;42.53;;;23.33;;
11084;SDS011;5596;46.826;8.650;2023-03-05T02:16:37;47.23;;;22.73;;
11084;SDS011;5596;46.826;8.650;2023-03-05T02:19:07;44.23;;;22.97;;
11084;SDS011;5596;46.826;8.650;2023-03-05T02:21:37;43.53;;;22.40;;
11084;SDS011;5596;46.826;8.650;2023-03-05T02:24:06;41.90;;;22.10;;
11084;SDS011;5596;46.826;8.650;2023-03-05T02:26:36;44.57;;;22.80;;
11084;SDS011;5596;46.826;8.650;2023-03-05T02:29:03;47.60;;;24.17;;
11084;SDS011;5596;46.826;8.650;2023-03-05T02:31:34;44.20;;;22.97;;
11084;SDS011;5596;46.826;8.650;2023-03-05T02:34:04;46.50;;;23.30;;
11084;SDS011;5596;46.826;8.650;2023-03-05T02:36:32;45.83;;;21.90;;
11084;SDS011;5596;46.826;8.650;2023-03-05T02:39:01;44.00;;;23.23;;
11084;SDS011;5596;46.826;8.650;2023-03-05T02:41:28;45.43;;;22.70;;
11084;SDS011;5596;46.826;8.650;2023-03-05T02:43:57;46.93;;;23.20;;
11084;SDS011;5596;46.826;8.650;2023-03-05T02:46:24;47.30;;;23.90;;
11084;SDS011;5596;46.826;8.650;2023-03-05T02:48:51;44.30;;;23.23;;
11084;SDS011;5596;46.826;8.650;2023-03-05T02:51:18;40.57;;;21.80;;
11084;SDS011;5596;46.826;8.650;2023-03-05T02:53:46;46.30;;;22.93;;
11084;SDS011;5596;46.826;8.650;2023-03-05T02:56:16;47.97;;;23.77;;
11084;SDS011;5596;46.826;8.650;2023-03-05T02:58:43;42.40;;;23.27;;
11084;SDS011;5596;46.826;8.650;2023-03-05T03:01:10;45.73;;;24.03;;
11084;SDS011;5596;46.826;8.650;2023-03-05T03:03:37;43.70;;;24.27;;
11084;SDS011;5596;46.826;8.650;2023-03-05T03:06:08;48.67;;;23.67;;
11084;SDS011;5596;46.826;8.650;2023-03-05T03:08:35;45.90;;;23.90;;
11084;SDS011;5596;46.826;8.650;2023-03-05T03:11:05;42.87;;;23.07;;
11084;SDS011;5596;46.826;8.650;2023-03-05T03:13:34;44.23;;;23.80;;
11084;SDS011;5596;46.826;8.650;2023-03-05T03:16:02;48.63;;;24.30;;
11084;SDS011;5596;46.826;8.650;2023-03-05T03:18:30;47.13;;;23.73;;
11084;SDS011;5596;46.826;8.650;2023-03-05T03:20:57;43.83;;;23.77;;
11084;SDS011;5596;46.826;8.650;2023-03-05T03:23:25;44.53;;;23.37;;
11084;SDS011;5596;46.826;8.650;2023-03-05T03:25:52;43.07;;;22.77;;
11084;SDS011;5596;46.826;8.650;2023-03-05T03:28:19;50.57;;;24.90;;
11084;SDS011;5596;46.826;8.650;2023-03-05T03:30:48;50.77;;;24.00;;
11084;SDS011;5596;46.826;8.650;2023-03-05T03:33:15;47.13;;;24.30;;
11084;SDS011;5596;46.826;8.650;2023-03-05T03:35:42;45.37;;;23.97;;
11084;SDS011;5596;46.826;8.650;2023-03-05T03:38:10;46.40;;;24.03;;
11084;SDS011;5596;46.826;8.650;2023-03-05T03:40:38;47.83;;;23.93;;
11084;SDS011;5596;46.826;8.650;2023-03-05T03:43:06;48.57;;;24.73;;
11084;SDS011;5596;46.826;8.650;2023-03-05T03:45:33;49.50;;;24.83;;
11084;SDS011;5596;46.826;8.650;2023-03-05T03:48:02;46.77;;;25.33;;
11084;SDS011;5596;46.826;8.650;2023-03-05T03:50:30;48.03;;;24.60;;
11084;SDS011;5596;46.826;8.650;2023-03-05T03:52:57;44.57;;;24.30;;
11084;SDS011;5596;46.826;8.650;2023-03-05T03:55:24;49.80;;;25.33;;
11084;SDS011;5596;46.826;8.650;2023-03-05T03:57:52;47.77;;;26.20;;
11084;SDS011;5596;46.826;8.650;2023-03-05T04:00:19;49.00;;;26.13;;
11084;SDS011;5596;46.826;8.650;2023-03-05T04:02:46;52.67;;;25.40;;
11084;SDS011;5596;46.826;8.650;2023-03-05T04:05:15;46.57;;;25.23;;
11084;SDS011;5596;46.826;8.650;2023-03-05T04:07:42;53.27;;;25.33;;
11084;SDS011;5596;46.826;8.650;2023-03-05T04:10:10;47.07;;;25.17;;
11084;SDS011;5596;46.826;8.650;2023-03-05T04:12:37;51.33;;;25.53;;
11084;SDS011;5596;46.826;8.650;2023-03-05T04:15:07;48.97;;;24.83;;
11084;SDS011;5596;46.826;8.650;2023-03-05T04:17:35;53.23;;;27.27;;
11084;SDS011;5596;46.826;8.650;2023-03-05T04:20:02;48.97;;;25.47;;
11084;SDS011;5596;46.826;8.650;2023-03-05T04:22:32;55.20;;;26.87;;
11084;SDS011;5596;46.826;8.650;2023-03-05T04:24:59;51.33;;;25.33;;
11084;SDS011;5596;46.826;8.650;2023-03-05T04:27:28;47.57;;;24.70;;
11084;SDS011;5596;46.826;8.650;2023-03-05T04:29:54;53.13;;;26.23;;
11084;SDS011;5596;46.826;8.650;2023-03-05T04:32:22;53.93;;;27.00;;
11084;SDS011;5596;46.826;8.650;2023-03-05T04:34:52;58.30;;;29.60;;
11084;SDS011;5596;46.826;8.650;2023-03-05T04:37:19;50.57;;;26.93;;
11084;SDS011;5596;46.826;8.650;2023-03-05T04:39:48;53.90;;;27.87;;
11084;SDS011;5596;46.826;8.650;2023-03-05T04:42:15;52.63;;;26.53;;
11084;SDS011;5596;46.826;8.650;2023-03-05T04:44:44;51.37;;;25.20;;
11084;SDS011;5596;46.826;8.650;2023-03-05T04:47:11;54.33;;;26.40;;
11084;SDS011;5596;46.826;8.650;2023-03-05T04:49:38;51.27;;;25.33;;
11084;SDS011;5596;46.826;8.650;2023-03-05T04:52:05;52.47;;;26.57;;
11084;SDS011;5596;46.826;8.650;2023-03-05T04:54:32;47.63;;;24.40;;
11084;SDS011;5596;46.826;8.650;2023-03-05T04:57:01;47.93;;;26.20;;
11084;SDS011;5596;46.826;8.650;2023-03-05T04:59:28;54.53;;;27.23;;
11084;SDS011;5596;46.826;8.650;2023-03-05T05:01:55;57.13;;;26.80;;
11084;SDS011;5596;46.826;8.650;2023-03-05T05:04:22;51.80;;;27.40;;
11084;SDS011;5596;46.826;8.650;2023-03-05T05:06:49;51.77;;;25.93;;
11084;SDS011;5596;46.826;8.650;2023-03-05T05:09:20;50.93;;;25.00;;
11084;SDS011;5596;46.826;8.650;2023-03-05T05:11:47;56.50;;;27.30;;
11084;SDS011;5596;46.826;8.650;2023-03-05T05:14:15;50.37;;;26.47;;
11084;SDS011;5596;46.826;8.650;2023-03-05T05:16:42;48.87;;;24.77;;
11084;SDS011;5596;46.826;8.650;2023-03-05T05:19:09;52.33;;;26.23;;
11084;SDS011;5596;46.826;8.650;2023-03-05T05:21:37;49.70;;;26.00;;
11084;SDS011;5596;46.826;8.650;2023-03-05T05:24:04;52.20;;;26.60;;
11084;SDS011;5596;46.826;8.650;2023-03-05T05:26:31;47.17;;;25.50;;
11084;SDS011;5596;46.826;8.650;2023-03-05T05:28:58;56.63;;;27.83;;
11084;SDS011;5596;46.826;8.650;2023-03-05T05:31:26;51.43;;;26.13;;
11084;SDS011;5596;46.826;8.650;2023-03-05T05:33:53;56.43;;;27.63;;
11084;SDS011;5596;46.826;8.650;2023-03-05T05:36:20;51.33;;;26.33;;
11084;SDS011;5596;46.826;8.650;2023-03-05T05:38:47;49.90;;;25.67;;
11084;SDS011;5596;46.826;8.650;2023-03-05T05:41:16;50.73;;;26.53;;
11084;SDS011;5596;46.826;8.650;2023-03-05T05:43:44;50.80;;;26.17;;
11084;SDS011;5596;46.826;8.650;2023-03-05T05:46:12;49.30;;;25.57;;
11084;SDS011;5596;46.826;8.650;2023-03-05T05:48:42;50.87;;;26.03;;
11084;SDS011;5596;46.826;8.650;2023-03-05T05:51:10;57.20;;;28.00;;
11084;SDS011;5596;46.826;8.650;2023-03-05T05:53:39;55.10;;;27.47;;
11084;SDS011;5596;46.826;8.650;2023-03-05T05:56:08;50.37;;;26.57;;
11084;SDS011;5596;46.826;8.650;2023-03-05T05:58:37;48.83;;;24.77;;
11084;SDS011;5596;46.826;8.650;2023-03-05T06:01:10;53.13;;;26.70;;
11084;SDS011;5596;46.826;8.650;2023-03-05T06:03:38;52.17;;;26.77;;
11084;SDS011;5596;46.826;8.650;2023-03-05T06:06:08;51.53;;;26.93;;
11084;SDS011;5596;46.826;8.650;2023-03-05T06:08:36;54.00;;;27.73;;
11084;SDS011;5596;46.826;8.650;2023-03-05T06:11:03;48.90;;;25.00;;
11084;SDS011;5596;46.826;8.650;2023-03-05T06:13:31;52.40;;;26.93;;
11084;SDS011;5596;46.826;8.650;2023-03-05T06:15:59;57.13;;;27.87;;
11084;SDS011;5596;46.826;8.650;2023-03-05T06:18:27;57.63;;;27.80;;
11084;SDS011;5596;46.826;8.650;2023-03-05T06:20:54;59.10;;;28.60;;
11084;SDS011;5596;46.826;8.650;2023-03-05T06:23:24;53.40;;;26.57;;
11084;SDS011;5596;46.826;8.650;2023-03-05T06:25:51;50.17;;;27.77;;
11084;SDS011;5596;46.826;8.650;2023-03-05T06:28:19;55.27;;;27.67;;
11084;SDS011;5596;46.826;8.650;2023-03-05T06:30:46;57.57;;;29.37;;
11084;SDS011;5596;46.826;8.650;2023-03-05T06:33:13;51.23;;;27.73;;
11084;SDS011;5596;46.826;8.650;2023-03-05T06:35:40;59.73;;;28.63;;
11084;SDS011;5596;46.826;8.650;2023-03-05T06:38:08;53.20;;;27.60;;
11084;SDS011;5596;46.826;8.650;2023-03-05T06:40:37;54.17;;;27.73;;
11084;SDS011;5596;46.826;8.650;2023-03-05T06:43:05;54.77;;;28.00;;
11084;SDS011;5596;46.826;8.650;2023-03-05T06:45:32;56.33;;;27.83;;
11084;SDS011;5596;46.826;8.650;2023-03-05T06:47:59;53.63;;;27.27;;
11084;SDS011;5596;46.826;8.650;2023-03-05T06:50:26;58.97;;;27.63;;
11084;SDS011;5596;46.826;8.650;2023-03-05T06:52:53;56.03;;;27.40;;
11084;SDS011;5596;46.826;8.650;2023-03-05T06:55:20;57.63;;;27.23;;
11084;SDS011;5596;46.826;8.650;2023-03-05T06:57:49;55.13;;;27.50;;
11084;SDS011;5596;46.826;8.650;2023-03-05T07:00:16;53.80;;;26.80;;
11084;SDS011;5596;46.826;8.650;2023-03-05T07:02:43;55.33;;;28.27;;
11084;SDS011;5596;46.826;8.650;2023-03-05T07:05:10;55.60;;;28.33;;
11084;SDS011;5596;46.826;8.650;2023-03-05T07:07:37;56.47;;;27.47;;
11084;SDS011;5596;46.826;8.650;2023-03-05T07:10:05;52.67;;;26.13;;
11084;SDS011;5596;46.826;8.650;2023-03-05T07:12:33;62.60;;;27.07;;
11084;SDS011;5596;46.826;8.650;2023-03-05T07:15:01;50.50;;;25.37;;
11084;SDS011;5596;46.826;8.650;2023-03-05T07:17:28;53.33;;;27.60;;
11084;SDS011;5596;46.826;8.650;2023-03-05T07:19:55;55.40;;;27.73;;
11084;SDS011;5596;46.826;8.650;2023-03-05T07:22:22;55.80;;;27.07;;
11084;SDS011;5596;46.826;8.650;2023-03-05T07:24:50;52.10;;;28.03;;
11084;SDS011;5596;46.826;8.650;2023-03-05T07:27:17;52.50;;;26.47;;
11084;SDS011;5596;46.826;8.650;2023-03-05T07:29:44;55.77;;;27.23;;
11084;SDS011;5596;46.826;8.650;2023-03-05T07:32:12;58.03;;;28.20;;
11084;SDS011;5596;46.826;8.650;2023-03-05T07:34:39;55.40;;;26.47;;
11084;SDS011;5596;46.826;8.650;2023-03-05T07:37:06;56.43;;;28.57;;
11084;SDS011;5596;46.826;8.650;2023-03-05T07:39:33;55.20;;;27.67;;
11084;SDS011;5596;46.826;8.650;2023-03-05T07:42:00;57.57;;;27.70;;
11084;SDS011;5596;46.826;8.650;2023-03-05T07:44:44;58.73;;;28.80;;
11084;SDS011;5596;46.826;8.650;2023-03-05T07:47:12;55.90;;;28.50;;
11084;SDS011;5596;46.826;8.650;2023-03-05T07:49:39;58.30;;;28.67;;
11084;SDS011;5596;46.826;8.650;2023-03-05T07:52:06;57.17;;;28.63;;
11084;SDS011;5596;46.826;8.650;2023-03-05T07:54:37;55.83;;;27.70;;
11084;SDS011;5596;46.826;8.650;2023-03-05T07:57:05;56.53;;;27.13;;
11084;SDS011;5596;46.826;8.650;2023-03-05T07:59:33;57.43;;;27.07;;
11084;SDS011;5596;46.826;8.650;2023-03-05T08:02:00;61.57;;;28.93;;
11084;SDS011;5596;46.826;8.650;2023-03-05T08:04:28;56.50;;;28.43;;
11084;SDS011;5596;46.826;8.650;2023-03-05T08:06:56;52.57;;;26.77;;
11084;SDS011;5596;46.826;8.650;2023-03-05T08:09:24;55.60;;;28.20;;
11084;SDS011;5596;46.826;8.650;2023-03-05T08:11:51;53.93;;;27.57;;
11084;SDS011;5596;46.826;8.650;2023-03-05T08:14:18;57.37;;;27.60;;
11084;SDS011;5596;46.826;8.650;2023-03-05T08:16:45;52.63;;;27.57;;
11084;SDS011;5596;46.826;8.650;2023-03-05T08:19:14;56.83;;;28.50;;
11084;SDS011;5596;46.826;8.650;2023-03-05T08:21:43;56.53;;;28.53;;
11084;SDS011;5596;46.826;8.650;2023-03-05T08:24:10;55.77;;;28.60;;
11084;SDS011;5596;46.826;8.650;2023-03-05T08:26:38;55.00;;;28.83;;
11084;SDS011;5596;46.826;8.650;2023-03-05T08:29:06;51.93;;;27.03;;
11084;SDS011;5596;46.826;8.650;2023-03-05T08:31:34;57.87;;;28.27;;
11084;SDS011;5596;46.826;8.650;2023-03-05T08:34:02;54.33;;;28.03;;
11084;SDS011;5596;46.826;8.650;2023-03-05T08:36:30;51.53;;;26.83;;
11084;SDS011;5596;46.826;8.650;2023-03-05T08:38:59;53.33;;;26.83;;
11084;SDS011;5596;46.826;8.650;2023-03-05T08:41:26;48.57;;;25.77;;
11084;SDS011;5596;46.826;8.650;2023-03-05T08:43:53;51.73;;;24.70;;
11084;SDS011;5596;46.826;8.650;2023-03-05T08:46:22;48.40;;;25.33;;
11084;SDS011;5596;46.826;8.650;2023-03-05T08:48:49;47.40;;;24.90;;
11084;SDS011;5596;46.826;8.650;2023-03-05T08:51:17;45.53;;;24.53;;
11084;SDS011;5596;46.826;8.650;2023-03-05T08:53:46;53.90;;;26.43;;
11084;SDS011;5596;46.826;8.650;2023-03-05T08:56:14;49.43;;;24.90;;
11084;SDS011;5596;46.826;8.650;2023-03-05T08:58:42;52.13;;;26.67;;
11084;SDS011;5596;46.826;8.650;2023-03-05T09:01:10;48.13;;;25.07;;
11084;SDS011;5596;46.826;8.650;2023-03-05T09:03:38;42.83;;;22.73;;
11084;SDS011;5596;46.826;8.650;2023-03-05T09:06:06;44.47;;;23.47;;
11084;SDS011;5596;46.826;8.650;2023-03-05T09:08:36;44.83;;;23.60;;
11084;SDS011;5596;46.826;8.650;2023-03-05T09:11:08;51.40;;;23.40;;
11084;SDS011;5596;46.826;8.650;2023-03-05T09:13:39;40.53;;;21.50;;
11084;SDS011;5596;46.826;8.650;2023-03-05T09:16:07;35.77;;;19.47;;
11084;SDS011;5596;46.826;8.650;2023-03-05T09:18:37;34.80;;;18.63;;
11084;SDS011;5596;46.826;8.650;2023-03-05T09:21:05;34.17;;;18.93;;
11084;SDS011;5596;46.826;8.650;2023-03-05T09:23:33;33.57;;;17.67;;
11084;SDS011;5596;46.826;8.650;2023-03-05T09:26:00;31.37;;;16.73;;
11084;SDS011;5596;46.826;8.650;2023-03-05T09:28:29;34.93;;;18.43;;
11084;SDS011;5596;46.826;8.650;2023-03-05T09:31:00;30.67;;;17.17;;
11084;SDS011;5596;46.826;8.650;2023-03-05T09:33:28;32.17;;;17.27;;
11084;SDS011;5596;46.826;8.650;2023-03-05T09:35:54;31.73;;;16.90;;
11084;SDS011;5596;46.826;8.650;2023-03-05T09:38:22;35.27;;;17.93;;
11084;SDS011;5596;46.826;8.650;2023-03-05T09:40:51;31.63;;;17.33;;
11084;SDS011;5596;46.826;8.650;2023-03-05T09:43:25;32.30;;;19.17;;
11084;SDS011;5596;46.826;8.650;2023-03-05T09:46:03;35.93;;;18.70;;
11084;SDS011;5596;46.826;8.650;2023-03-05T09:48:47;33.53;;;17.40;;
11084;SDS011;5596;46.826;8.650;2023-03-05T09:51:18;31.73;;;18.07;;
11084;SDS011;5596;46.826;8.650;2023-03-05T09:53:49;30.40;;;17.47;;
11084;SDS011;5596;46.826;8.650;2023-03-05T09:56:25;32.53;;;17.37;;
11084;SDS011;5596;46.826;8.650;2023-03-05T09:58:57;31.80;;;18.30;;
11084;SDS011;5596;46.826;8.650;2023-03-05T10:01:33;35.57;;;19.03;;
11084;SDS011;5596;46.826;8.650;2023-03-05T10:04:05;32.67;;;17.10;;
11084;SDS011;5596;46.826;8.650;2023-03-05T10:06:39;34.13;;;18.73;;
11084;SDS011;5596;46.826;8.650;2023-03-05T10:09:16;37.43;;;18.67;;
11084;SDS011;5596;46.826;8.650;2023-03-05T10:11:50;34.40;;;18.57;;
11084;SDS011;5596;46.826;8.650;2023-03-05T10:14:23;32.17;;;18.20;;
11084;SDS011;5596;46.826;8.650;2023-03-05T10:17:05;31.63;;;17.90;;
11084;SDS011;5596;46.826;8.650;2023-03-05T10:19:55;35.60;;;18.10;;
11084;SDS011;5596;46.826;8.650;2023-03-05T10:22:32;31.57;;;17.30;;
11084;SDS011;5596;46.826;8.650;2023-03-05T10:25:14;34.03;;;17.93;;
11084;SDS011;5596;46.826;8.650;2023-03-05T10:27:46;41.47;;;21.53;;
11084;SDS011;5596;46.826;8.650;2023-03-05T10:30:32;38.83;;;21.77;;
11084;SDS011;5596;46.826;8.650;2023-03-05T10:33:21;41.50;;;21.30;;
11084;SDS011;5596;46.826;8.650;2023-03-05T10:36:06;37.80;;;20.93;;
11084;SDS011;5596;46.826;8.650;2023-03-05T10:38:49;38.27;;;21.33;;
11084;SDS011;5596;46.826;8.650;2023-03-05T10:41:36;42.10;;;21.40;;
11084;SDS011;5596;46.826;8.650;2023-03-05T10:44:14;38.60;;;20.83;;
11084;SDS011;5596;46.826;8.650;2023-03-05T10:46:48;42.50;;;22.43;;
11084;SDS011;5596;46.826;8.650;2023-03-05T10:49:17;37.27;;;20.10;;
11084;SDS011;5596;46.826;8.650;2023-03-05T10:51:48;32.50;;;19.00;;
11084;SDS011;5596;46.826;8.650;2023-03-05T10:54:18;36.20;;;19.47;;
11084;SDS011;5596;46.826;8.650;2023-03-05T10:57:01;33.93;;;19.20;;
11084;SDS011;5596;46.826;8.650;2023-03-05T10:59:29;35.63;;;19.53;;
11084;SDS011;5596;46.826;8.650;2023-03-05T11:02:00;38.57;;;21.33;;
11084;SDS011;5596;46.826;8.650;2023-03-05T11:04:32;36.67;;;21.00;;
11084;SDS011;5596;46.826;8.650;2023-03-05T11:07:04;34.93;;;19.43;;
11084;SDS011;5596;46.826;8.650;2023-03-05T11:09:33;38.83;;;20.00;;
11084;SDS011;5596;46.826;8.650;2023-03-05T11:12:01;36.00;;;21.33;;
11084;SDS011;5596;46.826;8.650;2023-03-05T11:14:41;33.13;;;20.87;;
11084;SDS011;5596;46.826;8.650;2023-03-05T11:19:55;37.93;;;22.57;;
11084;SDS011;5596;46.826;8.650;2023-03-05T11:22:31;34.97;;;19.70;;
11084;SDS011;5596;46.826;8.650;2023-03-05T11:25:04;36.90;;;19.87;;
11084;SDS011;5596;46.826;8.650;2023-03-05T11:27:43;32.70;;;18.97;;
11084;SDS011;5596;46.826;8.650;2023-03-05T11:30:17;39.63;;;22.47;;
11084;SDS011;5596;46.826;8.650;2023-03-05T11:32:47;39.73;;;21.63;;
11084;SDS011;5596;46.826;8.650;2023-03-05T11:37:59;39.37;;;21.23;;
11084;SDS011;5596;46.826;8.650;2023-03-05T11:40:27;39.63;;;21.60;;
11084;SDS011;5596;46.826;8.650;2023-03-05T11:42:57;40.07;;;22.00;;
11084;SDS011;5596;46.826;8.650;2023-03-05T11:45:27;36.77;;;20.87;;
11084;SDS011;5596;46.826;8.650;2023-03-05T11:47:56;38.07;;;20.93;;
11084;SDS011;5596;46.826;8.650;2023-03-05T11:50:29;36.97;;;20.27;;
11084;SDS011;5596;46.826;8.650;2023-03-05T11:52:59;35.33;;;21.87;;
11084;SDS011;5596;46.826;8.650;2023-03-05T11:55:32;37.40;;;21.63;;
11084;SDS011;5596;46.826;8.650;2023-03-05T11:58:09;40.33;;;22.20;;
11084;SDS011;5596;46.826;8.650;2023-03-05T12:00:52;43.23;;;22.07;;
11084;SDS011;5596;46.826;8.650;2023-03-05T12:03:20;40.87;;;21.70;;
11084;SDS011;5596;46.826;8.650;2023-03-05T12:05:53;37.93;;;21.03;;
11084;SDS011;5596;46.826;8.650;2023-03-05T12:08:26;34.47;;;19.30;;
11084;SDS011;5596;46.826;8.650;2023-03-05T12:10:58;38.77;;;21.93;;
11084;SDS011;5596;46.826;8.650;2023-03-05T12:13:32;33.60;;;20.97;;
11084;SDS011;5596;46.826;8.650;2023-03-05T12:16:05;35.97;;;20.23;;
11084;SDS011;5596;46.826;8.650;2023-03-05T12:18:43;33.30;;;20.00;;
11084;SDS011;5596;46.826;8.650;2023-03-05T12:21:22;36.37;;;20.60;;
11084;SDS011;5596;46.826;8.650;2023-03-05T12:23:57;35.53;;;19.90;;
11084;SDS011;5596;46.826;8.650;2023-03-05T12:29:37;38.70;;;20.67;;
11084;SDS011;5596;46.826;8.650;2023-03-05T12:32:48;32.67;;;19.00;;
11084;SDS011;5596;46.826;8.650;2023-03-05T12:35:30;35.63;;;20.40;;
11084;SDS011;5596;46.826;8.650;2023-03-05T12:44:17;38.90;;;21.67;;
11084;SDS011;5596;46.826;8.650;2023-03-05T12:49:43;33.27;;;19.73;;
11084;SDS011;5596;46.826;8.650;2023-03-05T12:52:14;38.63;;;20.40;;
11084;SDS011;5596;46.826;8.650;2023-03-05T12:54:56;35.27;;;19.37;;
11084;SDS011;5596;46.826;8.650;2023-03-05T12:57:29;32.63;;;20.00;;
11084;SDS011;5596;46.826;8.650;2023-03-05T12:59:57;36.37;;;20.60;;
11084;SDS011;5596;46.826;8.650;2023-03-05T13:02:30;34.67;;;20.50;;
11084;SDS011;5596;46.826;8.650;2023-03-05T13:05:01;41.70;;;20.43;;
11084;SDS011;5596;46.826;8.650;2023-03-05T13:07:31;32.17;;;19.57;;
11084;SDS011;5596;46.826;8.650;2023-03-05T13:10:00;35.13;;;20.10;;
11084;SDS011;5596;46.826;8.650;2023-03-05T13:12:28;39.43;;;21.53;;
11084;SDS011;5596;46.826;8.650;2023-03-05T13:15:00;34.73;;;20.10;;
11084;SDS011;5596;46.826;8.650;2023-03-05T13:17:30;34.40;;;19.90;;
11084;SDS011;5596;46.826;8.650;2023-03-05T13:20:03;36.70;;;20.20;;
11084;SDS011;5596;46.826;8.650;2023-03-05T13:23:01;36.50;;;20.03;;
11084;SDS011;5596;46.826;8.650;2023-03-05T13:25:31;35.80;;;20.53;;
11084;SDS011;5596;46.826;8.650;2023-03-05T13:28:01;37.40;;;20.27;;
11084;SDS011;5596;46.826;8.650;2023-03-05T13:30:29;39.40;;;21.57;;
11084;SDS011;5596;46.826;8.650;2023-03-05T13:32:56;33.83;;;19.20;;
11084;SDS011;5596;46.826;8.650;2023-03-05T13:35:28;37.60;;;21.03;;
11084;SDS011;5596;46.826;8.650;2023-03-05T13:37:55;33.40;;;19.63;;
11084;SDS011;5596;46.826;8.650;2023-03-05T13:40:23;34.47;;;20.87;;
11084;SDS011;5596;46.826;8.650;2023-03-05T13:42:53;31.83;;;18.80;;
11084;SDS011;5596;46.826;8.650;2023-03-05T13:45:23;35.50;;;19.40;;
11084;SDS011;5596;46.826;8.650;2023-03-05T13:47:53;35.13;;;19.40;;
11084;SDS011;5596;46.826;8.650;2023-03-05T13:50:23;33.43;;;20.00;;
11084;SDS011;5596;46.826;8.650;2023-03-05T13:52:52;35.27;;;20.37;;
11084;SDS011;5596;46.826;8.650;2023-03-05T13:55:20;35.60;;;20.20;;
11084;SDS011;5596;46.826;8.650;2023-03-05T13:57:48;36.53;;;19.57;;
11084;SDS011;5596;46.826;8.650;2023-03-05T14:00:29;37.50;;;20.20;;
11084;SDS011;5596;46.826;8.650;2023-03-05T14:02:59;33.27;;;18.57;;
11084;SDS011;5596;46.826;8.650;2023-03-05T14:05:33;33.00;;;18.23;;
11084;SDS011;5596;46.826;8.650;2023-03-05T14:08:01;36.70;;;20.33;;
11084;SDS011;5596;46.826;8.650;2023-03-05T14:10:33;37.47;;;19.70;;
11084;SDS011;5596;46.826;8.650;2023-03-05T14:13:02;35.43;;;19.10;;
11084;SDS011;5596;46.826;8.650;2023-03-05T14:15:33;35.27;;;20.40;;
11084;SDS011;5596;46.826;8.650;2023-03-05T14:20:58;34.40;;;20.23;;
11084;SDS011;5596;46.826;8.650;2023-03-05T14:23:32;33.97;;;19.23;;
11084;SDS011;5596;46.826;8.650;2023-03-05T14:28:53;33.87;;;19.83;;
11084;SDS011;5596;46.826;8.650;2023-03-05T14:31:23;36.97;;;20.23;;
11084;SDS011;5596;46.826;8.650;2023-03-05T14:33:52;34.60;;;19.00;;
11084;SDS011;5596;46.826;8.650;2023-03-05T14:36:26;36.03;;;19.47;;
11084;SDS011;5596;46.826;8.650;2023-03-05T14:38:54;39.83;;;20.00;;
11084;SDS011;5596;46.826;8.650;2023-03-05T14:41:32;33.87;;;19.23;;
11084;SDS011;5596;46.826;8.650;2023-03-05T14:44:05;32.60;;;19.30;;
11084;SDS011;5596;46.826;8.650;2023-03-05T14:46:38;40.70;;;20.40;;
11084;SDS011;5596;46.826;8.650;2023-03-05T14:49:05;36.87;;;20.63;;
11084;SDS011;5596;46.826;8.650;2023-03-05T14:51:32;39.77;;;20.97;;
11084;SDS011;5596;46.826;8.650;2023-03-05T14:54:04;34.47;;;19.33;;
11084;SDS011;5596;46.826;8.650;2023-03-05T14:56:32;35.83;;;20.17;;
11084;SDS011;5596;46.826;8.650;2023-03-05T14:58:59;34.43;;;19.67;;
11084;SDS011;5596;46.826;8.650;2023-03-05T15:01:26;37.67;;;19.40;;
11084;SDS011;5596;46.826;8.650;2023-03-05T15:03:54;38.53;;;19.37;;
11084;SDS011;5596;46.826;8.650;2023-03-05T15:06:23;39.10;;;20.80;;
11084;SDS011;5596;46.826;8.650;2023-03-05T15:08:57;37.10;;;20.03;;
11084;SDS011;5596;46.826;8.650;2023-03-05T15:11:24;36.73;;;20.33;;
11084;SDS011;5596;46.826;8.650;2023-03-05T15:13:51;43.33;;;22.53;;
11084;SDS011;5596;46.826;8.650;2023-03-05T15:16:18;45.90;;;22.83;;